createdAt,value
2022-08-22T00:02:42.243Z,53.25
2022-08-22T00:02:46.133Z,59.15
2022-08-22T00:02:48.244Z,55.60
2022-08-22T00:02:54.059Z,59.15
2022-08-22T00:03:09.592Z,54.60
2022-08-22T00:06:18.866Z,27.75
2022-08-22T00:09:31.007Z,25.67
2022-08-22T00:12:33.302Z,24.45
2022-08-22T00:15:42.077Z,21.92
2022-08-22T00:18:42.282Z,23.70
2022-08-22T00:21:38.055Z,28.08
2022-08-22T00:24:51.061Z,22.02
2022-08-22T00:27:51.734Z,22.67
2022-08-22T00:30:57.686Z,18.92
2022-08-22T00:33:58.455Z,21.10
2022-08-22T00:37:12.239Z,19.30
2022-08-22T00:40:21.026Z,18.58
2022-08-22T00:43:32.756Z,14.27
2022-08-22T00:46:37.401Z,14.48
2022-08-22T00:49:39.560Z,14.38
2022-08-22T00:52:34.634Z,19.05
2022-08-22T00:55:46.483Z,15.27
2022-08-22T00:58:47.615Z,12.38
2022-08-22T01:01:42.545Z,11.90
2022-08-22T01:04:46.924Z,15.02
2022-08-22T01:07:55.108Z,14.25
2022-08-22T01:10:53.907Z,13.82
2022-08-22T01:14:02.197Z,14.38
2022-08-22T01:17:02.202Z,12.80
2022-08-22T01:20:25.708Z,19.08
2022-08-22T01:23:40.555Z,14.52
2022-08-22T01:26:47.937Z,17.65
2022-08-22T01:29:41.355Z,15.13
2022-08-22T01:33:24.228Z,18.15
2022-08-22T01:36:38.238Z,13.02
2022-08-22T01:39:47.740Z,13.38
2022-08-22T01:42:55.655Z,13.48
2022-08-22T01:45:55.941Z,14.70
2022-08-22T01:48:53.855Z,18.17
2022-08-22T01:51:55.778Z,17.33
2022-08-22T01:54:55.470Z,21.23
2022-08-22T01:58:01.791Z,20.10
2022-08-22T02:01:26.659Z,15.38
2022-08-22T02:04:38.593Z,17.90
2022-08-22T02:07:50.795Z,17.65
2022-08-22T02:11:07.428Z,19.90
2022-08-22T02:14:19.983Z,18.77
2022-08-22T02:17:13.159Z,13.68
2022-08-22T02:20:20.417Z,15.70
2022-08-22T02:23:19.946Z,14.10
2022-08-22T02:26:18.283Z,13.60
2022-08-22T02:29:21.696Z,18.77
2022-08-22T02:32:22.713Z,13.32
2022-08-22T02:35:20.246Z,17.50
2022-08-22T02:38:14.765Z,20.20
2022-08-22T02:41:23.135Z,17.52
2022-08-22T02:44:50.030Z,16.40
2022-08-22T02:48:08.499Z,14.68
2022-08-22T02:51:13.005Z,17.52
2022-08-22T02:54:33.322Z,14.57
2022-08-22T02:57:49.184Z,11.52
2022-08-22T03:00:54.655Z,11.73
2022-08-22T03:03:48.559Z,9.57
2022-08-22T03:06:49.277Z,11.32
2022-08-22T03:09:58.385Z,10.32
2022-08-22T03:12:57.580Z,7.30
2022-08-22T03:15:56.926Z,9.65
2022-08-22T03:19:07.947Z,8.23
2022-08-22T03:22:03.865Z,11.00
2022-08-22T03:25:32.595Z,11.00
2022-08-22T03:28:59.585Z,9.80
2022-08-22T03:32:10.831Z,9.50
2022-08-22T03:35:05.115Z,11.77
2022-08-22T03:38:10.492Z,8.93
2022-08-22T03:41:14.525Z,14.27
2022-08-22T03:44:37.865Z,7.78
2022-08-22T03:48:08.366Z,13.38
2022-08-22T03:51:25.815Z,9.95
2022-08-22T03:54:37.925Z,9.32
2022-08-22T03:57:45.665Z,9.95
2022-08-22T04:00:50.542Z,11.70
2022-08-22T04:04:27.776Z,11.88
2022-08-22T04:07:32.217Z,10.50
2022-08-22T04:10:35.344Z,8.68
2022-08-22T04:13:52.776Z,9.40
2022-08-22T04:17:13.198Z,11.23
2022-08-22T04:20:56.367Z,9.38
2022-08-22T04:23:54.276Z,14.73
2022-08-22T04:27:05.640Z,13.80
2022-08-22T04:30:20.121Z,11.10
2022-08-22T04:33:15.765Z,10.98
2022-08-22T04:36:13.572Z,10.13
2022-08-22T04:39:07.674Z,12.38
2022-08-22T04:42:37.776Z,11.82
2022-08-22T04:45:45.765Z,13.02
2022-08-22T04:48:44.491Z,13.50
2022-08-22T04:51:44.178Z,13.85
2022-08-22T04:54:43.045Z,9.98
2022-08-22T04:57:54.937Z,10.80
2022-08-22T05:00:53.635Z,10.57
2022-08-22T05:03:52.254Z,12.57
2022-08-22T05:06:49.452Z,12.32
2022-08-22T05:09:41.125Z,14.10
2022-08-22T05:12:34.602Z,17.17
2022-08-22T05:15:38.065Z,11.63
2022-08-22T05:18:32.305Z,14.50
2022-08-22T05:21:27.151Z,18.48
2022-08-22T05:24:27.999Z,12.48
2022-08-22T05:27:25.526Z,13.63
2022-08-22T05:30:23.110Z,13.52
2022-08-22T05:33:41.223Z,10.77
2022-08-22T05:36:40.876Z,10.07
2022-08-22T05:39:31.449Z,10.73
2022-08-22T05:42:33.380Z,17.00
2022-08-22T05:45:25.933Z,16.27
2022-08-22T05:48:21.939Z,13.98
2022-08-22T05:51:23.512Z,13.70
2022-08-22T05:54:33.531Z,12.40
2022-08-22T05:57:29.193Z,11.95
2022-08-22T06:00:24.271Z,14.18
2022-08-22T06:03:42.209Z,15.35
2022-08-22T06:06:36.944Z,17.63
2022-08-22T06:09:35.863Z,15.52
2022-08-22T06:12:44.519Z,10.88
2022-08-22T06:16:01.809Z,17.70
2022-08-22T06:18:53.812Z,15.90
2022-08-22T06:21:44.369Z,17.20
2022-08-22T06:24:38.019Z,19.63
2022-08-22T06:27:31.069Z,18.05
2022-08-22T06:30:21.604Z,15.65
2022-08-22T06:33:15.309Z,25.20
2022-08-22T06:36:33.856Z,18.33
2022-08-22T06:39:31.512Z,23.58
2022-08-22T06:42:27.344Z,20.25
2022-08-22T06:45:30.972Z,17.90
2022-08-22T06:48:25.610Z,20.63
2022-08-22T06:51:16.473Z,22.02
2022-08-22T06:54:12.001Z,18.98
2022-08-22T06:57:02.100Z,19.38
2022-08-22T06:59:52.308Z,22.15
2022-08-22T07:02:59.653Z,21.80
2022-08-22T07:05:49.431Z,17.05
2022-08-22T07:08:39.431Z,14.80
2022-08-22T07:11:39.061Z,19.67
2022-08-22T07:14:44.619Z,14.05
2022-08-22T07:17:37.836Z,18.75
2022-08-22T07:20:36.462Z,20.35
2022-08-22T07:23:39.324Z,16.02
2022-08-22T07:26:33.825Z,16.27
2022-08-22T07:30:05.061Z,12.98
2022-08-22T07:33:20.986Z,21.27
2022-08-22T07:36:28.380Z,14.35
2022-08-22T07:39:40.634Z,25.10
2022-08-22T07:42:43.956Z,15.95
2022-08-22T07:45:42.188Z,18.90
2022-08-22T07:48:53.491Z,13.85
2022-08-22T07:51:49.274Z,24.20
2022-08-22T07:55:05.795Z,17.17
2022-08-22T07:58:01.186Z,18.38
2022-08-22T08:00:55.226Z,17.85
2022-08-22T08:03:53.831Z,16.38
2022-08-22T08:06:43.718Z,18.00
2022-08-22T08:09:36.681Z,23.73
2022-08-22T08:12:33.644Z,18.90
2022-08-22T08:15:25.491Z,14.93
2022-08-22T08:18:22.189Z,14.13
2022-08-22T08:21:25.813Z,15.65
2022-08-22T08:24:26.239Z,18.85
2022-08-22T08:27:37.619Z,13.48
2022-08-22T08:30:38.330Z,18.30
2022-08-22T08:33:30.988Z,10.70
2022-08-22T08:36:51.805Z,16.20
2022-08-22T08:39:54.619Z,15.90
2022-08-22T08:43:26.356Z,14.65
2022-08-22T08:46:15.879Z,18.38
2022-08-22T08:49:25.449Z,14.55
2022-08-22T08:52:30.855Z,17.95
2022-08-22T08:55:43.679Z,13.98
2022-08-22T08:58:45.203Z,12.82
2022-08-22T09:01:56.842Z,17.75
2022-08-22T09:05:26.815Z,10.48
2022-08-22T09:08:27.602Z,15.68
2022-08-22T09:11:48.752Z,14.30
2022-08-22T09:14:47.188Z,13.45
2022-08-22T09:18:18.259Z,13.60
2022-08-22T09:21:30.563Z,14.88
2022-08-22T09:24:41.330Z,13.20
2022-08-22T09:27:44.340Z,13.85
2022-08-22T09:30:59.571Z,12.05
2022-08-22T09:34:14.634Z,17.38
2022-08-22T09:37:28.666Z,12.95
2022-08-22T09:40:33.110Z,15.13
2022-08-22T09:43:46.576Z,14.10
2022-08-22T09:46:57.573Z,14.50
2022-08-22T09:50:13.632Z,16.45
2022-08-22T09:53:42.975Z,17.25
2022-08-22T09:56:57.736Z,12.88
2022-08-22T09:59:59.013Z,15.77
2022-08-22T10:03:19.894Z,8.73
2022-08-22T10:06:21.964Z,13.45
2022-08-22T10:09:31.285Z,11.05
2022-08-22T10:12:49.039Z,9.02
2022-08-22T10:15:42.377Z,11.80
2022-08-22T10:18:52.537Z,11.30
2022-08-22T10:22:05.769Z,11.57
2022-08-22T10:25:14.013Z,15.35
2022-08-22T10:28:21.357Z,11.10
2022-08-22T10:31:31.852Z,9.60
2022-08-22T10:34:25.741Z,13.48
2022-08-22T10:37:33.987Z,10.65
2022-08-22T10:40:36.005Z,9.82
2022-08-22T10:43:46.243Z,12.90
2022-08-22T10:46:54.367Z,10.45
2022-08-22T10:50:08.570Z,13.80
2022-08-22T10:53:28.922Z,10.63
2022-08-22T10:56:24.214Z,9.68
2022-08-22T10:59:26.949Z,15.65
2022-08-22T11:02:33.159Z,13.80
2022-08-22T11:05:37.115Z,12.02
2022-08-22T11:08:52.073Z,11.32
2022-08-22T11:12:14.984Z,9.13
2022-08-22T11:15:14.306Z,10.50
2022-08-22T11:18:23.558Z,14.13
2022-08-22T11:21:30.466Z,10.45
2022-08-22T11:24:35.633Z,13.07
2022-08-22T11:28:07.308Z,11.05
2022-08-22T11:31:21.126Z,15.27
2022-08-22T11:34:48.965Z,11.23
2022-08-22T11:37:43.333Z,14.73
2022-08-22T11:40:48.914Z,10.30
2022-08-22T11:43:56.822Z,7.57
2022-08-22T11:46:52.199Z,11.05
2022-08-22T11:50:07.207Z,11.57
2022-08-22T11:53:41.486Z,12.48
2022-08-22T11:56:41.620Z,12.88
2022-08-22T11:59:39.990Z,15.27
2022-08-22T12:02:41.388Z,9.82
2022-08-22T12:05:49.004Z,17.52
2022-08-22T12:08:38.810Z,8.27
2022-08-22T12:11:45.812Z,10.90
2022-08-22T12:15:02.248Z,9.48
2022-08-22T12:18:29.783Z,9.35
2022-08-22T12:21:38.615Z,12.43
2022-08-22T12:24:43.654Z,8.32
2022-08-22T12:28:08.064Z,8.00
2022-08-22T12:31:07.805Z,10.30
2022-08-22T12:34:24.390Z,8.38
2022-08-22T12:37:23.364Z,11.25
2022-08-22T12:40:19.362Z,8.18
2022-08-22T12:43:33.727Z,8.43
2022-08-22T12:46:50.722Z,5.28
2022-08-22T12:49:44.959Z,6.50
2022-08-22T12:53:04.771Z,9.10
2022-08-22T12:56:06.258Z,6.82
2022-08-22T12:59:13.790Z,8.90
2022-08-22T13:02:21.632Z,8.30
2022-08-22T13:05:19.716Z,6.25
2022-08-22T13:08:32.988Z,7.65
2022-08-22T13:11:24.379Z,10.63
2022-08-22T13:14:19.561Z,12.20
2022-08-22T13:17:25.097Z,12.75
2022-08-22T13:20:26.697Z,11.02
2022-08-22T13:23:31.488Z,11.65
2022-08-22T13:26:32.817Z,8.10
2022-08-22T13:29:46.981Z,7.28
2022-08-22T13:32:47.874Z,6.88
2022-08-22T13:35:55.453Z,4.60
2022-08-22T13:39:19.591Z,3.67
2022-08-22T13:42:14.264Z,14.98
2022-08-22T13:45:11.425Z,7.47
2022-08-22T13:48:15.540Z,4.60
2022-08-22T13:51:26.170Z,7.68
2022-08-22T13:54:28.752Z,4.07
2022-08-22T13:57:18.578Z,6.00
2022-08-22T14:00:57.365Z,8.35
2022-08-22T14:04:17.595Z,4.35
2022-08-22T14:07:23.910Z,5.55
2022-08-22T14:10:27.996Z,7.47
2022-08-22T14:13:18.945Z,8.32
2022-08-22T14:16:15.116Z,6.30
2022-08-22T14:19:12.352Z,4.53
2022-08-22T14:22:14.374Z,9.27
2022-08-22T14:25:11.341Z,7.50
2022-08-22T14:28:06.525Z,8.05
2022-08-22T14:31:13.725Z,8.35
2022-08-22T14:34:13.429Z,9.23
2022-08-22T14:37:14.410Z,7.38
2022-08-22T14:40:13.832Z,7.72
2022-08-22T14:43:22.163Z,9.80
2022-08-22T14:46:26.587Z,9.02
2022-08-22T14:49:30.235Z,10.85
2022-08-22T14:52:29.704Z,10.93
2022-08-22T14:55:30.584Z,9.85
2022-08-22T14:58:26.527Z,5.30
2022-08-22T15:01:23.683Z,7.22
2022-08-22T15:04:19.291Z,5.95
2022-08-22T15:07:12.911Z,6.65
2022-08-22T15:10:11.825Z,8.60
2022-08-22T15:13:05.356Z,7.72
2022-08-22T15:16:03.485Z,9.30
2022-08-22T15:18:55.895Z,8.05
2022-08-22T15:21:47.295Z,9.07
2022-08-22T15:25:04.646Z,5.72
2022-08-22T15:28:20.044Z,8.48
2022-08-22T15:31:21.049Z,8.77
2022-08-22T15:34:18.104Z,7.13
2022-08-22T15:37:23.005Z,6.35
2022-08-22T15:40:32.178Z,7.22
2022-08-22T15:43:34.888Z,8.98
2022-08-22T15:46:33.321Z,5.70
2022-08-22T15:49:23.102Z,5.45
2022-08-22T15:52:23.700Z,6.45
2022-08-22T15:55:30.395Z,7.75
2022-08-22T15:58:25.728Z,6.93
2022-08-22T16:01:20.684Z,8.27
2022-08-22T16:04:18.144Z,7.63
2022-08-22T16:07:42.503Z,7.50
2022-08-22T16:10:35.523Z,8.55
2022-08-22T16:13:31.924Z,7.60
2022-08-22T16:16:27.802Z,7.88
2022-08-22T16:19:21.813Z,8.52
2022-08-22T16:22:12.478Z,7.65
2022-08-22T16:25:04.117Z,9.23
2022-08-22T16:27:55.717Z,7.13
2022-08-22T16:30:45.182Z,8.85
2022-08-22T16:33:41.318Z,8.57
2022-08-22T16:37:00.475Z,11.77
2022-08-22T16:40:06.930Z,6.53
2022-08-22T16:43:17.503Z,7.68
2022-08-22T16:46:33.309Z,7.13
2022-08-22T16:49:34.978Z,3.50
2022-08-22T16:52:27.697Z,9.05
2022-08-22T16:55:32.325Z,4.78
2022-08-22T16:58:56.577Z,10.07
2022-08-22T17:01:48.908Z,7.90
2022-08-22T17:05:25.405Z,9.40
2022-08-22T17:08:31.901Z,10.88
2022-08-22T17:11:30.849Z,7.60
2022-08-22T17:14:55.085Z,7.97
2022-08-22T17:17:53.978Z,7.90
2022-08-22T17:21:05.054Z,7.22
2022-08-22T17:24:02.805Z,8.80
2022-08-22T17:27:00.581Z,8.55
2022-08-22T17:30:01.160Z,14.82
2022-08-22T17:33:13.684Z,12.45
2022-08-22T17:36:26.610Z,8.93
2022-08-22T17:39:38.567Z,8.65
2022-08-22T17:42:53.397Z,6.35
2022-08-22T17:45:55.497Z,7.78
2022-08-22T17:48:54.242Z,6.90
2022-08-22T17:52:33.540Z,8.02
2022-08-22T17:56:04.852Z,7.10
2022-08-22T17:59:31.601Z,11.52
2022-08-22T18:02:25.403Z,15.63
2022-08-22T18:06:00.895Z,7.05
2022-08-22T18:12:19.243Z,9.07
2022-08-22T18:15:31.601Z,10.50
2022-08-22T18:18:31.228Z,12.50
2022-08-22T18:21:35.295Z,10.43
2022-08-22T18:24:33.145Z,9.35
2022-08-22T18:27:39.076Z,10.55
2022-08-22T18:30:33.025Z,8.88
2022-08-22T18:33:51.992Z,7.68
2022-08-22T18:37:09.277Z,12.68
2022-08-22T18:40:13.530Z,12.10
2022-08-22T18:43:19.635Z,11.80
2022-08-22T18:46:29.050Z,9.88
2022-08-22T18:49:21.605Z,9.18
2022-08-22T18:52:15.857Z,14.85
2022-08-22T18:55:23.622Z,10.38
2022-08-22T18:58:35.838Z,11.75
2022-08-22T19:01:39.359Z,16.40
2022-08-22T19:04:45.274Z,14.38
2022-08-22T19:07:52.905Z,13.48
2022-08-22T19:10:59.943Z,14.52
2022-08-22T19:14:29.297Z,14.43
2022-08-22T19:17:31.295Z,10.80
2022-08-22T19:20:52.703Z,13.20
2022-08-22T19:23:47.649Z,12.02
2022-08-22T19:26:46.144Z,13.70
2022-08-22T19:29:38.083Z,10.98
2022-08-22T19:32:48.709Z,14.00
2022-08-22T19:35:38.621Z,13.95
2022-08-22T19:38:52.714Z,11.55
2022-08-22T19:41:47.639Z,9.55
2022-08-22T19:44:43.523Z,11.35
2022-08-22T19:47:41.933Z,12.23
2022-08-22T19:50:36.574Z,10.82
2022-08-22T19:53:40.852Z,14.02
2022-08-22T19:57:00.254Z,9.85
2022-08-22T20:00:15.191Z,8.00
2022-08-22T20:03:10.113Z,12.52
2022-08-22T20:06:22.026Z,9.02
2022-08-22T20:09:56.463Z,11.10
2022-08-22T20:13:05.566Z,12.70
2022-08-22T20:16:25.448Z,11.98
2022-08-22T20:19:17.827Z,7.88
2022-08-22T20:22:09.567Z,8.40
2022-08-22T20:25:00.737Z,9.68
2022-08-22T20:27:53.291Z,11.73
2022-08-22T20:30:45.375Z,9.50
2022-08-22T20:33:39.569Z,15.52
2022-08-22T20:36:29.712Z,11.93
2022-08-22T20:39:29.156Z,14.23
2022-08-22T20:42:20.119Z,10.20
2022-08-22T20:45:12.110Z,14.98
2022-08-22T20:48:02.546Z,17.80
2022-08-22T20:50:53.520Z,15.25
2022-08-22T20:53:43.936Z,12.55
2022-08-22T20:56:56.228Z,8.93
2022-08-22T20:59:57.254Z,10.15
2022-08-22T21:03:03.904Z,9.07
2022-08-22T21:05:53.151Z,10.90
2022-08-22T21:08:43.871Z,9.23
2022-08-22T21:11:41.836Z,8.27
2022-08-22T21:14:36.040Z,6.70
2022-08-22T21:17:34.363Z,8.45
2022-08-22T21:20:25.245Z,8.05
2022-08-22T21:23:16.461Z,4.97
2022-08-22T21:26:21.002Z,5.32
2022-08-22T21:29:16.593Z,8.10
2022-08-22T21:32:32.542Z,6.18
2022-08-22T21:35:27.381Z,7.25
2022-08-22T21:38:19.309Z,10.55
2022-08-22T21:41:08.749Z,12.18
2022-08-22T21:43:58.284Z,14.55
2022-08-22T21:46:47.754Z,10.73
2022-08-22T21:50:16.967Z,9.20
2022-08-22T21:53:15.573Z,9.93
2022-08-22T21:56:17.552Z,6.95
2022-08-22T21:59:51.091Z,12.00
2022-08-22T22:02:43.869Z,12.90
2022-08-22T22:05:33.677Z,9.23
2022-08-22T22:08:23.466Z,9.00
2022-08-22T22:11:19.746Z,10.02
2022-08-22T22:14:09.350Z,10.75
2022-08-22T22:16:59.407Z,12.68
2022-08-22T22:19:49.313Z,18.42
2022-08-22T22:22:46.573Z,15.07
2022-08-22T22:25:40.759Z,14.35
2022-08-22T22:28:41.594Z,16.45
2022-08-22T22:31:31.401Z,17.10
2022-08-22T22:34:22.389Z,17.70
2022-08-22T22:37:13.288Z,13.63
2022-08-22T22:40:08.228Z,16.23
2022-08-22T22:42:57.678Z,15.63
2022-08-22T22:45:47.850Z,11.88
2022-08-22T22:48:37.253Z,11.77
2022-08-22T22:51:27.117Z,15.07
2022-08-22T22:54:17.286Z,12.68
2022-08-22T22:57:06.372Z,17.52
2022-08-22T23:00:02.439Z,14.30
2022-08-22T23:02:52.244Z,12.35
2022-08-22T23:05:41.884Z,17.13
2022-08-22T23:08:31.762Z,14.82
2022-08-22T23:11:25.279Z,16.05
2022-08-22T23:14:15.284Z,10.70
2022-08-22T23:17:05.576Z,11.95
2022-08-22T23:19:55.718Z,13.38
2022-08-22T23:22:46.964Z,14.05
2022-08-22T23:25:40.704Z,11.32
2022-08-22T23:28:33.090Z,9.75
2022-08-22T23:31:33.380Z,12.05
2022-08-22T23:34:29.237Z,9.75
2022-08-22T23:37:21.737Z,13.05
2022-08-22T23:40:11.871Z,12.52
2022-08-22T23:43:02.008Z,12.15
2022-08-22T23:45:54.523Z,9.15
2022-08-22T23:48:44.898Z,15.77
2022-08-22T23:51:35.006Z,12.35
2022-08-22T23:54:28.951Z,10.85
2022-08-22T23:57:19.363Z,8.73
